createdAt,value
2023-02-14T00:00:37.411Z,1017.50
2023-02-14T00:01:37.395Z,1017.49
2023-02-14T00:02:37.471Z,1017.44
2023-02-14T00:03:37.373Z,1017.48
2023-02-14T00:04:37.425Z,1017.49
2023-02-14T00:05:37.349Z,1017.44
2023-02-14T00:06:37.362Z,1017.44
2023-02-14T00:07:37.330Z,1017.43
2023-02-14T00:08:37.331Z,1017.42
2023-02-14T00:09:37.332Z,1017.39
2023-02-14T00:10:37.296Z,1017.40
2023-02-14T00:11:37.282Z,1017.42
2023-02-14T00:12:37.298Z,1017.39
2023-02-14T00:13:37.260Z,1017.38
2023-02-14T00:14:37.252Z,1017.38
2023-02-14T00:15:37.247Z,1017.44
2023-02-14T00:16:37.232Z,1017.45
2023-02-14T00:17:37.268Z,1017.55
2023-02-14T00:18:37.203Z,1017.56
2023-02-14T00:19:37.189Z,1017.51
2023-02-14T00:20:37.182Z,1017.50
2023-02-14T00:21:37.183Z,1017.54
2023-02-14T00:22:37.209Z,1017.51
2023-02-14T00:23:37.164Z,1017.50
2023-02-14T00:24:37.143Z,1017.46
2023-02-14T00:25:37.252Z,1017.51
2023-02-14T00:26:37.119Z,1017.50
2023-02-14T00:27:37.113Z,1017.50
2023-02-14T00:28:37.095Z,1017.51
2023-02-14T00:29:37.093Z,1017.48
2023-02-14T00:30:37.242Z,1017.52
2023-02-14T00:31:37.240Z,1017.47
2023-02-14T00:32:37.083Z,1017.53
2023-02-14T00:33:37.045Z,1017.54
2023-02-14T00:34:37.053Z,1017.51
2023-02-14T00:35:37.021Z,1017.43
2023-02-14T00:36:37.006Z,1017.50
2023-02-14T00:37:36.996Z,1017.47
2023-02-14T00:38:36.989Z,1017.45
2023-02-14T00:39:36.989Z,1017.45
2023-02-14T00:40:36.963Z,1017.46
2023-02-14T00:41:36.966Z,1017.45
2023-02-14T00:42:36.956Z,1017.46
2023-02-14T00:43:36.943Z,1017.47
2023-02-14T00:44:36.938Z,1017.46
2023-02-14T00:45:36.945Z,1017.47
2023-02-14T00:46:36.910Z,1017.51
2023-02-14T00:47:36.902Z,1017.52
2023-02-14T00:48:36.870Z,1017.52
2023-02-14T00:49:36.884Z,1017.54
2023-02-14T00:50:36.851Z,1017.54
2023-02-14T00:51:36.842Z,1017.52
2023-02-14T00:52:36.844Z,1017.56
2023-02-14T00:53:36.812Z,1017.51
2023-02-14T00:54:36.825Z,1017.55
2023-02-14T00:55:36.799Z,1017.50
2023-02-14T00:56:36.798Z,1017.50
2023-02-14T00:57:36.799Z,1017.50
2023-02-14T00:58:36.765Z,1017.50
2023-02-14T00:59:36.746Z,1017.53
2023-02-14T01:00:36.783Z,1017.49
2023-02-14T01:01:36.746Z,1017.56
2023-02-14T01:02:36.773Z,1017.57
2023-02-14T01:03:36.798Z,1017.61
2023-02-14T01:04:36.696Z,1017.61
2023-02-14T01:05:36.685Z,1017.55
2023-02-14T01:06:36.708Z,1017.59
2023-02-14T01:07:36.656Z,1017.57
2023-02-14T01:08:36.651Z,1017.59
2023-02-14T01:09:36.645Z,1017.59
2023-02-14T01:10:36.629Z,1017.58
2023-02-14T01:11:36.632Z,1017.57
2023-02-14T01:12:36.631Z,1017.61
2023-02-14T01:13:36.626Z,1017.55
2023-02-14T01:14:36.581Z,1017.58
2023-02-14T01:15:36.568Z,1017.54
2023-02-14T01:16:36.799Z,1017.58
2023-02-14T01:17:36.552Z,1017.58
2023-02-14T01:18:36.556Z,1017.55
2023-02-14T01:19:36.624Z,1017.57
2023-02-14T01:20:36.525Z,1017.54
2023-02-14T01:21:36.546Z,1017.56
2023-02-14T01:22:36.489Z,1017.54
2023-02-14T01:23:36.482Z,1017.54
2023-02-14T01:24:36.478Z,1017.54
2023-02-14T01:25:36.473Z,1017.57
2023-02-14T01:26:36.459Z,1017.55
2023-02-14T01:27:36.444Z,1017.56
2023-02-14T01:28:36.431Z,1017.56
2023-02-14T01:29:36.479Z,1017.52
2023-02-14T01:30:36.481Z,1017.57
2023-02-14T01:31:36.586Z,1017.57
2023-02-14T01:32:36.413Z,1017.56
2023-02-14T01:33:36.366Z,1017.59
2023-02-14T01:34:36.370Z,1017.60
2023-02-14T01:35:36.351Z,1017.60
2023-02-14T01:36:36.382Z,1017.61
2023-02-14T01:37:36.340Z,1017.57
2023-02-14T01:38:36.330Z,1017.65
2023-02-14T01:39:36.327Z,1017.60
2023-02-14T01:40:36.327Z,1017.59
2023-02-14T01:41:36.280Z,1017.60
2023-02-14T01:42:36.291Z,1017.57
2023-02-14T01:43:36.263Z,1017.61
2023-02-14T01:44:36.285Z,1017.62
2023-02-14T01:45:36.291Z,1017.63
2023-02-14T01:46:36.243Z,1017.55
2023-02-14T01:47:36.212Z,1017.55
2023-02-14T01:48:36.222Z,1017.58
2023-02-14T01:49:36.216Z,1017.57
2023-02-14T01:50:36.188Z,1017.59
2023-02-14T01:51:36.174Z,1017.59
2023-02-14T01:52:36.172Z,1017.60
2023-02-14T01:53:36.192Z,1017.59
2023-02-14T01:54:36.153Z,1017.63
2023-02-14T01:55:36.122Z,1017.62
2023-02-14T01:56:36.168Z,1017.65
2023-02-14T01:57:36.103Z,1017.61
2023-02-14T01:58:36.123Z,1017.56
2023-02-14T01:59:36.140Z,1017.57
2023-02-14T02:00:36.109Z,1017.57
2023-02-14T02:01:36.181Z,1017.54
2023-02-14T02:02:36.140Z,1017.50
2023-02-14T02:03:36.036Z,1017.54
2023-02-14T02:04:36.058Z,1017.52
2023-02-14T02:05:36.136Z,1017.54
2023-02-14T02:06:36.031Z,1017.50
2023-02-14T02:07:36.025Z,1017.49
2023-02-14T02:08:35.983Z,1017.54
2023-02-14T02:09:35.979Z,1017.52
2023-02-14T02:10:35.966Z,1017.51
2023-02-14T02:11:35.981Z,1017.54
2023-02-14T02:12:35.938Z,1017.51
2023-02-14T02:13:35.930Z,1017.52
2023-02-14T02:14:35.915Z,1017.49
2023-02-14T02:15:35.914Z,1017.50
2023-02-14T02:16:35.962Z,1017.44
2023-02-14T02:17:36.012Z,1017.42
2023-02-14T02:18:35.902Z,1017.38
2023-02-14T02:19:35.863Z,1017.40
2023-02-14T02:20:35.862Z,1017.41
2023-02-14T02:21:35.838Z,1017.40
2023-02-14T02:22:35.830Z,1017.42
2023-02-14T02:23:35.837Z,1017.41
2023-02-14T02:24:35.813Z,1017.37
2023-02-14T02:25:35.828Z,1017.39
2023-02-14T02:26:35.784Z,1017.36
2023-02-14T02:27:35.771Z,1017.37
2023-02-14T02:28:35.765Z,1017.38
2023-02-14T02:29:35.774Z,1017.35
2023-02-14T02:30:35.999Z,1017.35
2023-02-14T02:31:35.948Z,1017.38
2023-02-14T02:32:35.731Z,1017.31
2023-02-14T02:33:35.735Z,1017.29
2023-02-14T02:34:35.724Z,1017.35
2023-02-14T02:35:35.745Z,1017.32
2023-02-14T02:36:35.681Z,1017.31
2023-02-14T02:37:35.667Z,1017.30
2023-02-14T02:38:35.657Z,1017.28
2023-02-14T02:39:35.657Z,1017.31
2023-02-14T02:40:35.666Z,1017.30
2023-02-14T02:41:35.626Z,1017.29
2023-02-14T02:42:35.621Z,1017.32
2023-02-14T02:43:35.597Z,1017.27
2023-02-14T02:44:35.592Z,1017.28
2023-02-14T02:45:35.591Z,1017.26
2023-02-14T02:46:35.567Z,1017.27
2023-02-14T02:47:35.555Z,1017.26
2023-02-14T02:48:35.544Z,1017.25
2023-02-14T02:49:35.567Z,1017.24
2023-02-14T02:50:35.555Z,1017.27
2023-02-14T02:51:35.513Z,1017.23
2023-02-14T02:52:35.535Z,1017.24
2023-02-14T02:53:35.486Z,1017.24
2023-02-14T02:54:35.474Z,1017.21
2023-02-14T02:55:35.471Z,1017.25
2023-02-14T02:56:35.480Z,1017.27
2023-02-14T02:57:35.443Z,1017.19
2023-02-14T02:58:35.433Z,1017.17
2023-02-14T02:59:35.418Z,1017.16
2023-02-14T03:00:35.433Z,1017.24
2023-02-14T03:01:35.445Z,1017.20
2023-02-14T03:02:35.406Z,1017.21
2023-02-14T03:03:35.373Z,1017.23
2023-02-14T03:04:35.482Z,1017.27
2023-02-14T03:05:35.370Z,1017.26
2023-02-14T03:06:35.345Z,1017.24
2023-02-14T03:07:35.359Z,1017.26
2023-02-14T03:08:35.319Z,1017.22
2023-02-14T03:09:35.309Z,1017.25
2023-02-14T03:10:35.312Z,1017.22
2023-02-14T03:11:35.289Z,1017.21
2023-02-14T03:12:35.333Z,1017.21
2023-02-14T03:13:35.281Z,1017.18
2023-02-14T03:14:35.257Z,1017.17
2023-02-14T03:15:35.294Z,1017.19
2023-02-14T03:16:35.231Z,1017.19
2023-02-14T03:17:35.243Z,1017.18
2023-02-14T03:18:35.236Z,1017.16
2023-02-14T03:19:35.201Z,1017.17
2023-02-14T03:20:35.192Z,1017.16
2023-02-14T03:21:35.197Z,1017.14
2023-02-14T03:22:35.179Z,1017.14
2023-02-14T03:23:35.197Z,1017.12
2023-02-14T03:24:35.170Z,1017.10
2023-02-14T03:25:35.147Z,1017.07
2023-02-14T03:26:35.148Z,1017.10
2023-02-14T03:27:35.115Z,1017.07
2023-02-14T03:28:35.106Z,1017.13
2023-02-14T03:29:35.089Z,1017.15
2023-02-14T03:30:35.099Z,1017.11
2023-02-14T03:31:35.212Z,1017.13
2023-02-14T03:32:35.061Z,1017.11
2023-02-14T03:33:35.047Z,1017.08
2023-02-14T03:34:35.038Z,1017.12
2023-02-14T03:35:35.054Z,1017.07
2023-02-14T03:36:35.067Z,1017.05
2023-02-14T03:37:35.024Z,1017.07
2023-02-14T03:38:35.001Z,1017.01
2023-02-14T03:39:34.999Z,1017.04
2023-02-14T03:40:34.968Z,1017.05
2023-02-14T03:41:34.959Z,1017.02
2023-02-14T03:42:34.951Z,1016.99
2023-02-14T03:43:34.946Z,1017.05
2023-02-14T03:44:34.954Z,1017.03
2023-02-14T03:45:35.024Z,1016.98
2023-02-14T03:46:35.008Z,1016.97
2023-02-14T03:47:34.893Z,1016.96
2023-02-14T03:48:34.893Z,1017.00
2023-02-14T03:49:34.919Z,1016.99
2023-02-14T03:50:34.859Z,1016.98
2023-02-14T03:51:34.849Z,1016.96
2023-02-14T03:52:34.861Z,1016.94
2023-02-14T03:53:34.898Z,1017.01
2023-02-14T03:54:34.846Z,1017.02
2023-02-14T03:55:34.840Z,1017.03
2023-02-14T03:56:34.794Z,1017.02
2023-02-14T03:57:34.801Z,1017.03
2023-02-14T03:58:34.827Z,1017.06
2023-02-14T03:59:34.766Z,1017.06
2023-02-14T04:00:34.776Z,1017.04
2023-02-14T04:01:34.820Z,1017.05
2023-02-14T04:02:34.743Z,1016.99
2023-02-14T04:03:34.747Z,1017.02
2023-02-14T04:04:34.769Z,1017.00
2023-02-14T04:05:34.716Z,1016.96
2023-02-14T04:06:34.704Z,1016.94
2023-02-14T04:07:34.697Z,1016.96
2023-02-14T04:08:34.666Z,1016.91
2023-02-14T04:09:34.669Z,1016.93
2023-02-14T04:10:34.641Z,1016.88
2023-02-14T04:11:34.642Z,1016.89
2023-02-14T04:12:37.938Z,1016.89
2023-02-14T04:13:34.622Z,1016.91
2023-02-14T04:14:34.603Z,1016.88
2023-02-14T04:15:34.682Z,1016.93
2023-02-14T04:16:34.580Z,1016.95
2023-02-14T04:17:34.580Z,1016.92
2023-02-14T04:18:34.553Z,1016.88
2023-02-14T04:19:34.549Z,1016.93
2023-02-14T04:20:34.528Z,1016.92
2023-02-14T04:21:34.536Z,1016.90
2023-02-14T04:22:34.541Z,1016.91
2023-02-14T04:23:34.511Z,1016.89
2023-02-14T04:24:34.493Z,1016.93
2023-02-14T04:25:34.501Z,1016.92
2023-02-14T04:26:34.467Z,1016.92
2023-02-14T04:27:34.491Z,1016.93
2023-02-14T04:28:34.444Z,1016.95
2023-02-14T04:29:34.438Z,1016.92
2023-02-14T04:30:34.418Z,1016.90
2023-02-14T04:31:34.628Z,1016.93
2023-02-14T04:32:34.419Z,1016.91
2023-02-14T04:33:34.384Z,1016.91
2023-02-14T04:34:34.383Z,1016.88
2023-02-14T04:35:34.365Z,1016.90
2023-02-14T04:36:34.351Z,1016.89
2023-02-14T04:37:34.359Z,1016.93
2023-02-14T04:38:34.364Z,1016.91
2023-02-14T04:39:34.317Z,1016.86
2023-02-14T04:40:34.322Z,1016.89
2023-02-14T04:41:34.317Z,1016.85
2023-02-14T04:42:34.302Z,1016.90
2023-02-14T04:43:34.283Z,1016.84
2023-02-14T04:44:34.281Z,1016.85
2023-02-14T04:45:34.274Z,1016.88
2023-02-14T04:46:34.255Z,1016.88
2023-02-14T04:47:34.230Z,1016.89
2023-02-14T04:48:34.225Z,1016.91
2023-02-14T04:49:34.209Z,1016.86
2023-02-14T04:50:34.211Z,1016.87
2023-02-14T04:51:34.206Z,1016.88
2023-02-14T04:52:34.185Z,1016.90
2023-02-14T04:53:34.166Z,1016.86
2023-02-14T04:54:34.197Z,1016.87
2023-02-14T04:55:34.156Z,1016.86
2023-02-14T04:56:34.163Z,1016.81
2023-02-14T04:57:34.176Z,1016.92
2023-02-14T04:58:34.105Z,1016.86
2023-02-14T04:59:34.095Z,1016.82
2023-02-14T05:00:34.131Z,1016.80
2023-02-14T05:01:34.085Z,1016.82
2023-02-14T05:02:34.067Z,1016.87
2023-02-14T05:03:34.073Z,1016.83
2023-02-14T05:04:34.041Z,1016.82
2023-02-14T05:05:34.039Z,1016.86
2023-02-14T05:06:34.017Z,1016.85
2023-02-14T05:07:34.012Z,1016.85
2023-02-14T05:08:34.014Z,1016.84
2023-02-14T05:09:34.018Z,1016.81
2023-02-14T05:10:33.972Z,1016.83
2023-02-14T05:11:33.970Z,1016.83
2023-02-14T05:12:33.951Z,1016.85
2023-02-14T05:13:33.977Z,1016.84
2023-02-14T05:14:33.931Z,1016.80
2023-02-14T05:15:33.929Z,1016.85
2023-02-14T05:16:33.971Z,1016.84
2023-02-14T05:17:33.894Z,1016.83
2023-02-14T05:18:33.907Z,1016.84
2023-02-14T05:19:33.875Z,1016.86
2023-02-14T05:20:33.866Z,1016.82
2023-02-14T05:21:33.880Z,1016.84
2023-02-14T05:22:33.865Z,1016.85
2023-02-14T05:23:33.832Z,1016.80
2023-02-14T05:24:33.823Z,1016.83
2023-02-14T05:25:33.811Z,1016.81
2023-02-14T05:26:33.826Z,1016.80
2023-02-14T05:27:33.797Z,1016.79
2023-02-14T05:28:33.771Z,1016.78
2023-02-14T05:29:33.787Z,1016.78
2023-02-14T05:30:33.831Z,1016.80
2023-02-14T05:31:33.870Z,1016.78
2023-02-14T05:32:33.741Z,1016.83
2023-02-14T05:33:33.718Z,1016.79
2023-02-14T05:34:33.733Z,1016.77
2023-02-14T05:35:33.695Z,1016.78
2023-02-14T05:36:33.683Z,1016.79
2023-02-14T05:37:33.688Z,1016.80
2023-02-14T05:38:33.662Z,1016.76
2023-02-14T05:39:33.654Z,1016.78
2023-02-14T05:40:33.669Z,1016.79
2023-02-14T05:41:33.636Z,1016.77
2023-02-14T05:42:33.618Z,1016.77
2023-02-14T05:43:33.614Z,1016.80
2023-02-14T05:44:33.594Z,1016.78
2023-02-14T05:45:33.837Z,1016.84
2023-02-14T05:46:33.603Z,1016.82
2023-02-14T05:47:33.571Z,1016.82
2023-02-14T05:48:33.555Z,1016.84
2023-02-14T05:49:33.592Z,1016.82
2023-02-14T05:50:33.539Z,1016.87
2023-02-14T05:51:33.536Z,1016.87
2023-02-14T05:52:33.522Z,1016.88
2023-02-14T05:53:33.540Z,1016.84
2023-02-14T05:54:33.524Z,1016.81
2023-02-14T05:55:33.510Z,1016.86
2023-02-14T05:56:33.474Z,1016.83
2023-02-14T05:57:33.893Z,1016.84
2023-02-14T05:58:33.452Z,1016.85
2023-02-14T05:59:33.569Z,1016.89
2023-02-14T06:00:33.472Z,1016.84
2023-02-14T06:01:34.395Z,1016.88
2023-02-14T06:02:33.495Z,1016.86
2023-02-14T06:03:33.445Z,1016.88
2023-02-14T06:04:33.442Z,1016.88
2023-02-14T06:05:33.381Z,1016.87
2023-02-14T06:06:35.609Z,1016.91
2023-02-14T06:07:33.403Z,1016.88
2023-02-14T06:08:33.342Z,1016.90
2023-02-14T06:09:33.326Z,1016.91
2023-02-14T06:10:33.314Z,1016.88
2023-02-14T06:11:33.313Z,1016.91
2023-02-14T06:12:33.321Z,1016.91
2023-02-14T06:13:33.308Z,1016.93
2023-02-14T06:14:33.272Z,1016.91
2023-02-14T06:15:33.262Z,1016.92
2023-02-14T06:16:33.279Z,1016.92
2023-02-14T06:17:33.279Z,1016.95
2023-02-14T06:18:33.247Z,1016.92
2023-02-14T06:19:33.235Z,1016.93
2023-02-14T06:20:33.216Z,1016.93
2023-02-14T06:21:33.207Z,1016.89
2023-02-14T06:22:33.193Z,1016.90
2023-02-14T06:23:33.196Z,1016.91
2023-02-14T06:24:33.186Z,1016.94
2023-02-14T06:25:33.152Z,1016.94
2023-02-14T06:26:33.158Z,1016.92
2023-02-14T06:27:33.140Z,1016.93
2023-02-14T06:28:33.154Z,1016.93
2023-02-14T06:29:33.132Z,1016.95
2023-02-14T06:30:33.297Z,1016.96
2023-02-14T06:31:33.224Z,1016.96
2023-02-14T06:32:33.080Z,1016.98
2023-02-14T06:33:33.101Z,1016.93
2023-02-14T06:34:33.075Z,1016.98
2023-02-14T06:35:33.053Z,1016.99
2023-02-14T06:36:33.033Z,1016.99
2023-02-14T06:37:33.025Z,1017.02
2023-02-14T06:38:33.015Z,1016.93
2023-02-14T06:39:33.032Z,1016.98
2023-02-14T06:40:32.995Z,1016.99
2023-02-14T06:41:32.976Z,1016.97
2023-02-14T06:42:32.988Z,1017.00
2023-02-14T06:43:32.962Z,1016.97
2023-02-14T06:44:32.973Z,1016.99
2023-02-14T06:45:32.933Z,1016.98
2023-02-14T06:46:33.040Z,1017.07
2023-02-14T06:47:34.987Z,1017.02
2023-02-14T06:48:32.908Z,1017.01
2023-02-14T06:49:32.952Z,1016.99
2023-02-14T06:50:32.882Z,1017.00
2023-02-14T06:51:32.903Z,1017.00
2023-02-14T06:52:32.868Z,1016.99
2023-02-14T06:53:32.886Z,1017.01
2023-02-14T06:54:32.836Z,1016.99
2023-02-14T06:55:32.834Z,1016.94
2023-02-14T06:56:32.833Z,1017.00
2023-02-14T06:57:32.812Z,1016.99
2023-02-14T06:58:32.805Z,1016.96
2023-02-14T06:59:32.782Z,1017.00
2023-02-14T07:00:32.783Z,1017.02
2023-02-14T07:01:32.854Z,1016.99
2023-02-14T07:02:32.869Z,1017.02
2023-02-14T07:03:32.738Z,1017.00
2023-02-14T07:04:32.741Z,1016.99
2023-02-14T07:05:32.770Z,1017.02
2023-02-14T07:06:32.724Z,1017.02
2023-02-14T07:07:32.710Z,1017.02
2023-02-14T07:08:32.680Z,1017.01
2023-02-14T07:09:32.673Z,1017.08
2023-02-14T07:10:32.685Z,1017.00
2023-02-14T07:11:32.670Z,1017.04
2023-02-14T07:12:32.646Z,1017.06
2023-02-14T07:13:32.667Z,1017.02
2023-02-14T07:14:32.635Z,1016.99
2023-02-14T07:15:32.699Z,1017.00
2023-02-14T07:16:32.596Z,1017.02
2023-02-14T07:17:32.598Z,1017.00
2023-02-14T07:18:32.570Z,1017.02
2023-02-14T07:19:32.561Z,1017.01
2023-02-14T07:20:32.554Z,1016.97
2023-02-14T07:21:32.571Z,1016.96
2023-02-14T07:22:32.554Z,1017.00
2023-02-14T07:23:32.517Z,1016.98
2023-02-14T07:24:32.512Z,1017.02
2023-02-14T07:25:32.501Z,1016.96
2023-02-14T07:26:32.501Z,1016.99
2023-02-14T07:27:32.471Z,1016.99
2023-02-14T07:28:32.464Z,1017.00
2023-02-14T07:29:32.455Z,1017.02
2023-02-14T07:30:32.641Z,1016.99
2023-02-14T07:31:32.557Z,1016.97
2023-02-14T07:32:32.437Z,1017.02
2023-02-14T07:33:32.432Z,1016.98
2023-02-14T07:34:32.405Z,1016.95
2023-02-14T07:35:32.380Z,1016.96
2023-02-14T07:36:32.376Z,1016.95
2023-02-14T07:37:32.401Z,1016.94
2023-02-14T07:38:32.359Z,1016.96
2023-02-14T07:39:32.339Z,1016.91
2023-02-14T07:40:32.341Z,1016.97
2023-02-14T07:41:32.332Z,1016.92
2023-02-14T07:42:32.322Z,1016.91
2023-02-14T07:43:32.297Z,1016.86
2023-02-14T07:44:32.313Z,1016.90
2023-02-14T07:45:32.296Z,1016.87
2023-02-14T07:46:32.321Z,1016.89
2023-02-14T07:47:32.266Z,1016.85
2023-02-14T07:48:34.206Z,1016.85
2023-02-14T07:49:32.246Z,1016.85
2023-02-14T07:50:32.222Z,1016.81
2023-02-14T07:51:32.211Z,1016.84
2023-02-14T07:52:32.195Z,1016.86
2023-02-14T07:53:32.219Z,1016.83
2023-02-14T07:54:32.193Z,1016.83
2023-02-14T07:55:32.168Z,1016.84
2023-02-14T07:56:32.157Z,1016.83
2023-02-14T07:57:32.138Z,1016.82
2023-02-14T07:58:32.165Z,1016.87
2023-02-14T07:59:32.117Z,1016.84
2023-02-14T08:00:32.125Z,1016.86
2023-02-14T08:01:32.149Z,1016.88
2023-02-14T08:02:32.095Z,1016.87
2023-02-14T08:03:32.093Z,1016.87
2023-02-14T08:04:33.791Z,1016.84
2023-02-14T08:05:32.052Z,1016.86
2023-02-14T08:06:32.039Z,1016.88
2023-02-14T08:07:32.026Z,1016.86
2023-02-14T08:08:32.051Z,1016.87
2023-02-14T08:09:32.049Z,1016.89
2023-02-14T08:10:31.993Z,1016.89
2023-02-14T08:11:31.984Z,1016.87
2023-02-14T08:12:31.977Z,1016.86
2023-02-14T08:13:31.999Z,1016.84
2023-02-14T08:14:31.947Z,1016.91
2023-02-14T08:15:31.961Z,1016.89
2023-02-14T08:16:32.007Z,1016.90
2023-02-14T08:17:31.911Z,1016.91
2023-02-14T08:18:31.997Z,1016.90
2023-02-14T08:19:31.889Z,1016.94
2023-02-14T08:20:31.903Z,1016.95
2023-02-14T08:21:31.911Z,1016.91
2023-02-14T08:22:31.868Z,1016.89
2023-02-14T08:23:31.857Z,1016.91
2023-02-14T08:24:31.867Z,1016.92
2023-02-14T08:25:31.847Z,1016.87
2023-02-14T08:26:31.834Z,1016.88
2023-02-14T08:27:31.810Z,1016.87
2023-02-14T08:28:31.790Z,1016.86
2023-02-14T08:29:31.786Z,1016.87
2023-02-14T08:30:31.911Z,1016.89
2023-02-14T08:31:36.506Z,1016.90
2023-02-14T08:32:32.949Z,1016.90
2023-02-14T08:33:31.731Z,1016.86
2023-02-14T08:34:31.737Z,1016.88
2023-02-14T08:35:31.724Z,1016.93
2023-02-14T08:36:31.746Z,1016.93
2023-02-14T08:37:31.728Z,1016.85
2023-02-14T08:38:31.700Z,1016.81
2023-02-14T08:39:31.664Z,1016.81
2023-02-14T08:40:31.671Z,1016.83
2023-02-14T08:41:31.687Z,1016.84
2023-02-14T08:42:31.635Z,1016.86
2023-02-14T08:43:34.139Z,1016.81
2023-02-14T08:44:31.608Z,1016.80
2023-02-14T08:45:31.601Z,1016.80
2023-02-14T08:46:31.723Z,1016.81
2023-02-14T08:47:31.574Z,1016.82
2023-02-14T08:48:31.619Z,1016.82
2023-02-14T08:49:31.572Z,1016.80
2023-02-14T08:50:31.574Z,1016.84
2023-02-14T08:51:31.555Z,1016.77
2023-02-14T08:52:31.534Z,1016.80
2023-02-14T08:53:31.524Z,1016.73
2023-02-14T08:54:31.513Z,1016.75
2023-02-14T08:55:31.512Z,1016.73
2023-02-14T08:56:31.474Z,1016.76
2023-02-14T08:57:31.477Z,1016.71
2023-02-14T08:58:32.766Z,1016.72
2023-02-14T08:59:31.467Z,1016.73
2023-02-14T09:00:31.637Z,1016.67
2023-02-14T09:01:31.536Z,1016.66
2023-02-14T09:02:31.412Z,1016.63
2023-02-14T09:03:31.463Z,1016.63
2023-02-14T09:04:31.494Z,1016.68
2023-02-14T09:05:31.397Z,1016.66
2023-02-14T09:06:31.360Z,1016.66
2023-02-14T09:07:31.351Z,1016.65
2023-02-14T09:08:31.376Z,1016.65
2023-02-14T09:09:31.345Z,1016.67
2023-02-14T09:10:31.413Z,1016.61
2023-02-14T09:11:31.305Z,1016.60
2023-02-14T09:12:31.338Z,1016.62
2023-02-14T09:13:31.340Z,1016.65
2023-02-14T09:14:32.171Z,1016.62
2023-02-14T09:15:31.289Z,1016.61
2023-02-14T09:16:31.366Z,1016.60
2023-02-14T09:17:31.352Z,1016.63
2023-02-14T09:18:31.275Z,1016.60
2023-02-14T09:19:31.259Z,1016.59
2023-02-14T09:20:31.236Z,1016.56
2023-02-14T09:21:31.250Z,1016.55
2023-02-14T09:22:31.243Z,1016.54
2023-02-14T09:23:31.171Z,1016.51
2023-02-14T09:24:31.184Z,1016.50
2023-02-14T09:25:31.175Z,1016.46
2023-02-14T09:26:31.196Z,1016.51
2023-02-14T09:27:31.131Z,1016.49
2023-02-14T09:28:31.153Z,1016.49
2023-02-14T09:29:31.191Z,1016.54
2023-02-14T09:30:31.237Z,1016.52
2023-02-14T09:31:31.180Z,1016.52
2023-02-14T09:32:31.117Z,1016.47
2023-02-14T09:33:31.085Z,1016.50
2023-02-14T09:34:31.055Z,1016.50
2023-02-14T09:35:31.079Z,1016.47
2023-02-14T09:36:31.033Z,1016.51
2023-02-14T09:37:31.023Z,1016.39
2023-02-14T09:38:31.013Z,1016.46
2023-02-14T09:39:31.015Z,1016.41
2023-02-14T09:40:30.990Z,1016.44
2023-02-14T09:41:30.997Z,1016.42
2023-02-14T09:42:30.991Z,1016.39
2023-02-14T09:43:30.970Z,1016.41
2023-02-14T09:44:30.968Z,1016.41
2023-02-14T09:45:30.979Z,1016.42
2023-02-14T09:46:31.021Z,1016.41
2023-02-14T09:47:30.903Z,1016.35
2023-02-14T09:48:30.900Z,1016.39
2023-02-14T09:49:31.012Z,1016.39
2023-02-14T09:50:30.953Z,1016.35
2023-02-14T09:51:30.882Z,1016.34
2023-02-14T09:52:30.856Z,1016.31
2023-02-14T09:53:30.840Z,1016.34
2023-02-14T09:54:30.843Z,1016.34
2023-02-14T09:55:30.845Z,1016.35
2023-02-14T09:56:33.603Z,1016.38
2023-02-14T09:57:31.799Z,1016.35
2023-02-14T09:58:30.787Z,1016.35
2023-02-14T09:59:30.793Z,1016.37
2023-02-14T10:00:30.768Z,1016.38
2023-02-14T10:01:30.944Z,1016.35
2023-02-14T10:02:30.761Z,1016.34
2023-02-14T10:03:30.733Z,1016.34
2023-02-14T10:04:30.751Z,1016.34
2023-02-14T10:05:30.735Z,1016.36
2023-02-14T10:06:30.697Z,1016.38
2023-02-14T10:07:30.693Z,1016.33
2023-02-14T10:08:30.673Z,1016.34
2023-02-14T10:09:30.667Z,1016.35
2023-02-14T10:10:30.672Z,1016.34
2023-02-14T10:11:30.641Z,1016.33
2023-02-14T10:12:30.631Z,1016.33
2023-02-14T10:13:30.613Z,1016.33
2023-02-14T10:14:30.606Z,1016.28
2023-02-14T10:15:30.593Z,1016.31
2023-02-14T10:16:30.646Z,1016.29
2023-02-14T10:17:30.616Z,1016.25
2023-02-14T10:18:30.566Z,1016.23
2023-02-14T10:19:30.549Z,1016.25
2023-02-14T10:20:30.541Z,1016.26
2023-02-14T10:21:30.848Z,1016.23
2023-02-14T10:22:30.531Z,1016.19
2023-02-14T10:23:30.551Z,1016.17
2023-02-14T10:24:30.526Z,1016.21
2023-02-14T10:25:30.527Z,1016.17
2023-02-14T10:26:30.490Z,1016.20
2023-02-14T10:27:30.479Z,1016.16
2023-02-14T10:28:30.457Z,1016.13
2023-02-14T10:29:30.437Z,1016.12
2023-02-14T10:30:30.630Z,1016.12
2023-02-14T10:31:30.591Z,1016.03
2023-02-14T10:32:30.427Z,1016.05
2023-02-14T10:33:30.402Z,1016.03
2023-02-14T10:34:30.387Z,1016.04
2023-02-14T10:35:30.367Z,1016.07
2023-02-14T10:36:30.387Z,1016.08
2023-02-14T10:37:30.353Z,1016.04
2023-02-14T10:38:30.341Z,1016.01
2023-02-14T10:39:30.345Z,1016.00
2023-02-14T10:40:30.314Z,1016.05
2023-02-14T10:41:30.302Z,1016.04
2023-02-14T10:42:30.309Z,1016.03
2023-02-14T10:43:30.292Z,1016.00
2023-02-14T10:44:30.300Z,1015.96
2023-02-14T10:45:30.274Z,1015.97
2023-02-14T10:46:30.298Z,1015.99
2023-02-14T10:47:30.248Z,1015.98
2023-02-14T10:48:30.232Z,1015.98
2023-02-14T10:49:30.238Z,1015.98
2023-02-14T10:50:30.206Z,1015.99
2023-02-14T10:51:32.064Z,1016.01
2023-02-14T10:52:30.180Z,1015.98
2023-02-14T10:53:30.195Z,1015.93
2023-02-14T10:54:30.160Z,1015.94
2023-02-14T10:55:32.687Z,1015.94
2023-02-14T10:56:30.152Z,1015.91
2023-02-14T10:57:30.121Z,1015.86
2023-02-14T10:58:30.147Z,1015.84
2023-02-14T10:59:30.113Z,1015.79
2023-02-14T11:00:30.111Z,1015.81
2023-02-14T11:01:30.175Z,1015.85
2023-02-14T11:02:30.132Z,1015.81
2023-02-14T11:03:30.122Z,1015.83
2023-02-14T11:04:30.050Z,1015.79
2023-02-14T11:05:30.107Z,1015.71
2023-02-14T11:06:30.045Z,1015.67
2023-02-14T11:07:30.005Z,1015.61
2023-02-14T11:08:30.033Z,1015.66
2023-02-14T11:09:29.988Z,1015.62
2023-02-14T11:10:29.985Z,1015.63
2023-02-14T11:11:29.993Z,1015.58
2023-02-14T11:12:29.969Z,1015.57
2023-02-14T11:13:29.948Z,1015.56
2023-02-14T11:14:30.128Z,1015.61
2023-02-14T11:15:29.960Z,1015.56
2023-02-14T11:16:29.937Z,1015.54
2023-02-14T11:17:29.895Z,1015.57
2023-02-14T11:18:29.889Z,1015.56
2023-02-14T11:19:29.882Z,1015.58
2023-02-14T11:20:29.893Z,1015.55
2023-02-14T11:21:29.851Z,1015.54
2023-02-14T11:22:29.869Z,1015.55
2023-02-14T11:23:29.846Z,1015.54
2023-02-14T11:24:29.824Z,1015.47
2023-02-14T11:25:29.827Z,1015.51
2023-02-14T11:26:29.797Z,1015.48
2023-02-14T11:27:29.803Z,1015.49
2023-02-14T11:28:29.790Z,1015.45
2023-02-14T11:29:29.769Z,1015.46
2023-02-14T11:30:29.909Z,1015.48
2023-02-14T11:31:29.877Z,1015.44
2023-02-14T11:32:29.743Z,1015.45
2023-02-14T11:33:29.754Z,1015.46
2023-02-14T11:34:29.716Z,1015.43
2023-02-14T11:35:29.697Z,1015.45
2023-02-14T11:36:29.698Z,1015.36
2023-02-14T11:37:29.693Z,1015.41
2023-02-14T11:38:29.686Z,1015.30
2023-02-14T11:39:29.661Z,1015.36
2023-02-14T11:40:29.638Z,1015.31
2023-02-14T11:41:29.644Z,1015.30
2023-02-14T11:42:29.618Z,1015.30
2023-02-14T11:43:29.624Z,1015.32
2023-02-14T11:44:29.597Z,1015.34
2023-02-14T11:45:29.580Z,1015.25
2023-02-14T11:46:29.633Z,1015.26
2023-02-14T11:47:29.600Z,1015.29
2023-02-14T11:48:38.376Z,1015.19
2023-02-14T11:49:30.544Z,1015.20
2023-02-14T11:50:29.520Z,1015.16
2023-02-14T11:51:29.513Z,1015.12
2023-02-14T11:52:29.524Z,1015.13
2023-02-14T11:53:29.513Z,1015.13
2023-02-14T11:54:29.493Z,1015.07
2023-02-14T11:55:29.499Z,1015.14
2023-02-14T11:56:29.460Z,1015.14
2023-02-14T11:57:29.465Z,1015.07
2023-02-14T11:58:29.462Z,1015.09
2023-02-14T11:59:29.436Z,1015.10
2023-02-14T12:00:29.409Z,1015.09
2023-02-14T12:01:29.403Z,1015.07
2023-02-14T12:02:29.437Z,1015.05
2023-02-14T12:03:29.436Z,1014.99
2023-02-14T12:04:30.830Z,1014.97
2023-02-14T12:05:29.388Z,1014.97